sensor_id;sensor_type;location;lat;lon;timestamp;P1;durP1;ratioP1;P2;durP2;ratioP2
31638;SDS011;18248;51.522;7.020;2023-01-28T00:01:14;7.43;;;4.97;;
31638;SDS011;18248;51.522;7.020;2023-01-28T00:04:13;6.57;;;5.47;;
31638;SDS011;18248;51.522;7.020;2023-01-28T00:07:12;7.43;;;5.13;;
31638;SDS011;18248;51.522;7.020;2023-01-28T00:10:11;9.27;;;6.13;;
31638;SDS011;18248;51.522;7.020;2023-01-28T00:13:12;8.13;;;4.93;;
31638;SDS011;18248;51.522;7.020;2023-01-28T00:16:11;9.82;;;5.25;;
31638;SDS011;18248;51.522;7.020;2023-01-28T00:19:10;7.22;;;5.18;;
31638;SDS011;18248;51.522;7.020;2023-01-28T00:22:08;9.70;;;5.20;;
31638;SDS011;18248;51.522;7.020;2023-01-28T00:25:08;7.80;;;5.10;;
31638;SDS011;18248;51.522;7.020;2023-01-28T00:28:06;8.13;;;5.72;;
31638;SDS011;18248;51.522;7.020;2023-01-28T00:31:09;8.90;;;5.35;;
31638;SDS011;18248;51.522;7.020;2023-01-28T00:34:18;11.85;;;5.15;;
31638;SDS011;18248;51.522;7.020;2023-01-28T00:37:17;8.10;;;4.95;;
31638;SDS011;18248;51.522;7.020;2023-01-28T00:40:16;10.18;;;5.20;;
31638;SDS011;18248;51.522;7.020;2023-01-28T00:43:15;6.93;;;4.40;;
31638;SDS011;18248;51.522;7.020;2023-01-28T00:46:13;9.05;;;5.72;;
31638;SDS011;18248;51.522;7.020;2023-01-28T00:49:12;7.28;;;4.60;;
31638;SDS011;18248;51.522;7.020;2023-01-28T00:52:11;7.95;;;4.45;;
31638;SDS011;18248;51.522;7.020;2023-01-28T00:55:10;8.10;;;5.20;;
31638;SDS011;18248;51.522;7.020;2023-01-28T00:58:08;8.50;;;5.40;;
31638;SDS011;18248;51.522;7.020;2023-01-28T01:01:08;7.03;;;5.40;;
31638;SDS011;18248;51.522;7.020;2023-01-28T01:04:14;8.88;;;6.20;;
31638;SDS011;18248;51.522;7.020;2023-01-28T01:07:24;9.38;;;5.60;;
31638;SDS011;18248;51.522;7.020;2023-01-28T01:10:29;9.55;;;5.95;;
31638;SDS011;18248;51.522;7.020;2023-01-28T01:13:28;9.18;;;6.32;;
31638;SDS011;18248;51.522;7.020;2023-01-28T01:16:28;8.85;;;5.60;;
31638;SDS011;18248;51.522;7.020;2023-01-28T01:19:29;11.13;;;6.55;;
31638;SDS011;18248;51.522;7.020;2023-01-28T01:22:28;14.18;;;7.30;;
31638;SDS011;18248;51.522;7.020;2023-01-28T01:25:29;14.35;;;8.90;;
31638;SDS011;18248;51.522;7.020;2023-01-28T01:28:27;23.15;;;13.40;;
31638;SDS011;18248;51.522;7.020;2023-01-28T01:31:26;21.05;;;13.05;;
31638;SDS011;18248;51.522;7.020;2023-01-28T01:34:25;21.63;;;13.70;;
31638;SDS011;18248;51.522;7.020;2023-01-28T01:37:23;17.58;;;11.85;;
31638;SDS011;18248;51.522;7.020;2023-01-28T01:40:22;15.13;;;9.00;;
31638;SDS011;18248;51.522;7.020;2023-01-28T01:43:22;10.95;;;7.60;;
31638;SDS011;18248;51.522;7.020;2023-01-28T01:46:26;9.93;;;6.28;;
31638;SDS011;18248;51.522;7.020;2023-01-28T01:49:40;12.15;;;5.72;;
31638;SDS011;18248;51.522;7.020;2023-01-28T01:52:41;9.75;;;5.70;;
31638;SDS011;18248;51.522;7.020;2023-01-28T01:55:41;10.20;;;5.68;;
31638;SDS011;18248;51.522;7.020;2023-01-28T01:58:44;11.23;;;5.75;;
31638;SDS011;18248;51.522;7.020;2023-01-28T02:01:45;9.23;;;5.88;;
31638;SDS011;18248;51.522;7.020;2023-01-28T02:04:45;8.77;;;6.35;;
31638;SDS011;18248;51.522;7.020;2023-01-28T02:07:44;10.70;;;6.57;;
31638;SDS011;18248;51.522;7.020;2023-01-28T02:10:44;13.25;;;6.63;;
31638;SDS011;18248;51.522;7.020;2023-01-28T02:13:47;10.43;;;6.60;;
31638;SDS011;18248;51.522;7.020;2023-01-28T02:16:49;11.03;;;6.87;;
31638;SDS011;18248;51.522;7.020;2023-01-28T02:19:53;8.80;;;6.70;;
31638;SDS011;18248;51.522;7.020;2023-01-28T02:35:52;8.45;;;6.30;;
31638;SDS011;18248;51.522;7.020;2023-01-28T02:38:51;9.23;;;5.82;;
31638;SDS011;18248;51.522;7.020;2023-01-28T02:41:55;8.80;;;5.72;;
31638;SDS011;18248;51.522;7.020;2023-01-28T02:48:16;7.47;;;5.82;;
31638;SDS011;18248;51.522;7.020;2023-01-28T02:51:23;9.23;;;6.20;;
31638;SDS011;18248;51.522;7.020;2023-01-28T02:54:33;7.85;;;5.68;;
31638;SDS011;18248;51.522;7.020;2023-01-28T02:57:54;7.25;;;5.10;;
31638;SDS011;18248;51.522;7.020;2023-01-28T03:01:16;7.15;;;4.50;;
31638;SDS011;18248;51.522;7.020;2023-01-28T03:05:21;7.28;;;5.22;;
31638;SDS011;18248;51.522;7.020;2023-01-28T03:08:19;8.32;;;5.32;;
31638;SDS011;18248;51.522;7.020;2023-01-28T03:11:40;7.97;;;4.88;;
31638;SDS011;18248;51.522;7.020;2023-01-28T03:15:05;6.75;;;5.15;;
31638;SDS011;18248;51.522;7.020;2023-01-28T03:18:34;7.00;;;5.45;;
31638;SDS011;18248;51.522;7.020;2023-01-28T03:21:56;10.30;;;5.22;;
31638;SDS011;18248;51.522;7.020;2023-01-28T03:25:14;7.05;;;5.00;;
31638;SDS011;18248;51.522;7.020;2023-01-28T03:28:35;5.38;;;4.63;;
31638;SDS011;18248;51.522;7.020;2023-01-28T03:31:54;9.32;;;5.10;;
31638;SDS011;18248;51.522;7.020;2023-01-28T03:35:13;6.38;;;5.38;;
31638;SDS011;18248;51.522;7.020;2023-01-28T03:38:33;6.90;;;5.30;;
31638;SDS011;18248;51.522;7.020;2023-01-28T03:41:39;8.93;;;5.57;;
31638;SDS011;18248;51.522;7.020;2023-01-28T03:44:37;8.45;;;6.10;;
31638;SDS011;18248;51.522;7.020;2023-01-28T03:47:52;6.68;;;5.63;;
31638;SDS011;18248;51.522;7.020;2023-01-28T03:50:50;11.85;;;7.18;;
31638;SDS011;18248;51.522;7.020;2023-01-28T03:53:49;10.38;;;7.28;;
31638;SDS011;18248;51.522;7.020;2023-01-28T03:56:49;10.93;;;7.45;;
31638;SDS011;18248;51.522;7.020;2023-01-28T03:59:48;8.77;;;6.80;;
31638;SDS011;18248;51.522;7.020;2023-01-28T04:02:47;11.80;;;8.05;;
31638;SDS011;18248;51.522;7.020;2023-01-28T04:05:59;13.95;;;8.93;;
31638;SDS011;18248;51.522;7.020;2023-01-28T04:09:00;12.90;;;8.27;;
31638;SDS011;18248;51.522;7.020;2023-01-28T04:11:59;13.68;;;9.85;;
31638;SDS011;18248;51.522;7.020;2023-01-28T04:14:57;12.18;;;9.50;;
31638;SDS011;18248;51.522;7.020;2023-01-28T04:17:56;14.02;;;8.90;;
31638;SDS011;18248;51.522;7.020;2023-01-28T04:20:54;15.30;;;9.65;;
31638;SDS011;18248;51.522;7.020;2023-01-28T04:23:53;15.57;;;10.43;;
31638;SDS011;18248;51.522;7.020;2023-01-28T04:26:51;14.57;;;10.05;;
31638;SDS011;18248;51.522;7.020;2023-01-28T04:29:50;15.35;;;10.68;;
31638;SDS011;18248;51.522;7.020;2023-01-28T04:32:49;14.00;;;9.95;;
31638;SDS011;18248;51.522;7.020;2023-01-28T04:35:47;14.82;;;10.40;;
31638;SDS011;18248;51.522;7.020;2023-01-28T04:38:46;11.55;;;9.90;;
31638;SDS011;18248;51.522;7.020;2023-01-28T04:41:44;10.98;;;8.85;;
31638;SDS011;18248;51.522;7.020;2023-01-28T04:44:43;10.35;;;8.70;;
31638;SDS011;18248;51.522;7.020;2023-01-28T04:47:41;12.90;;;10.32;;
31638;SDS011;18248;51.522;7.020;2023-01-28T04:50:41;12.68;;;9.43;;
31638;SDS011;18248;51.522;7.020;2023-01-28T04:53:40;14.07;;;11.10;;
31638;SDS011;18248;51.522;7.020;2023-01-28T04:56:39;12.93;;;10.27;;
31638;SDS011;18248;51.522;7.020;2023-01-28T04:59:37;12.25;;;9.52;;
31638;SDS011;18248;51.522;7.020;2023-01-28T05:02:36;13.82;;;9.38;;
31638;SDS011;18248;51.522;7.020;2023-01-28T05:05:34;14.00;;;9.63;;
31638;SDS011;18248;51.522;7.020;2023-01-28T05:08:33;12.68;;;9.43;;
31638;SDS011;18248;51.522;7.020;2023-01-28T05:11:31;15.20;;;9.80;;
31638;SDS011;18248;51.522;7.020;2023-01-28T05:14:30;12.48;;;9.80;;
31638;SDS011;18248;51.522;7.020;2023-01-28T05:17:28;11.77;;;9.00;;
31638;SDS011;18248;51.522;7.020;2023-01-28T05:20:27;11.73;;;9.23;;
31638;SDS011;18248;51.522;7.020;2023-01-28T05:23:26;15.43;;;8.77;;
31638;SDS011;18248;51.522;7.020;2023-01-28T05:26:24;15.18;;;9.55;;
31638;SDS011;18248;51.522;7.020;2023-01-28T05:29:23;14.65;;;9.82;;
31638;SDS011;18248;51.522;7.020;2023-01-28T05:32:21;12.60;;;10.10;;
31638;SDS011;18248;51.522;7.020;2023-01-28T05:35:20;14.52;;;9.77;;
31638;SDS011;18248;51.522;7.020;2023-01-28T05:38:19;17.48;;;11.65;;
31638;SDS011;18248;51.522;7.020;2023-01-28T05:41:18;12.57;;;10.05;;
31638;SDS011;18248;51.522;7.020;2023-01-28T05:44:16;15.13;;;10.68;;
31638;SDS011;18248;51.522;7.020;2023-01-28T05:47:15;12.73;;;9.80;;
31638;SDS011;18248;51.522;7.020;2023-01-28T05:50:14;15.52;;;11.50;;
31638;SDS011;18248;51.522;7.020;2023-01-28T05:53:13;15.10;;;10.80;;
31638;SDS011;18248;51.522;7.020;2023-01-28T05:56:11;15.05;;;11.65;;
31638;SDS011;18248;51.522;7.020;2023-01-28T05:59:10;15.65;;;10.35;;
31638;SDS011;18248;51.522;7.020;2023-01-28T06:02:08;14.52;;;10.85;;
31638;SDS011;18248;51.522;7.020;2023-01-28T06:05:08;13.85;;;10.25;;
31638;SDS011;18248;51.522;7.020;2023-01-28T06:08:07;11.60;;;9.40;;
31638;SDS011;18248;51.522;7.020;2023-01-28T06:11:05;11.90;;;9.95;;
31638;SDS011;18248;51.522;7.020;2023-01-28T06:14:04;11.75;;;10.05;;
31638;SDS011;18248;51.522;7.020;2023-01-28T06:17:03;17.13;;;12.02;;
31638;SDS011;18248;51.522;7.020;2023-01-28T06:20:02;17.73;;;13.63;;
31638;SDS011;18248;51.522;7.020;2023-01-28T06:23:05;17.75;;;13.15;;
31638;SDS011;18248;51.522;7.020;2023-01-28T06:26:03;15.18;;;12.65;;
31638;SDS011;18248;51.522;7.020;2023-01-28T06:29:02;16.80;;;12.32;;
31638;SDS011;18248;51.522;7.020;2023-01-28T06:32:00;18.83;;;14.07;;
31638;SDS011;18248;51.522;7.020;2023-01-28T06:34:59;16.23;;;12.63;;
31638;SDS011;18248;51.522;7.020;2023-01-28T06:37:58;15.48;;;12.77;;
31638;SDS011;18248;51.522;7.020;2023-01-28T06:40:56;15.88;;;11.90;;
31638;SDS011;18248;51.522;7.020;2023-01-28T06:43:55;16.83;;;12.15;;
31638;SDS011;18248;51.522;7.020;2023-01-28T06:46:53;16.33;;;12.13;;
31638;SDS011;18248;51.522;7.020;2023-01-28T06:49:52;18.60;;;13.27;;
31638;SDS011;18248;51.522;7.020;2023-01-28T06:52:51;16.65;;;11.85;;
31638;SDS011;18248;51.522;7.020;2023-01-28T06:55:49;16.60;;;13.38;;
31638;SDS011;18248;51.522;7.020;2023-01-28T06:58:48;20.08;;;13.52;;
31638;SDS011;18248;51.522;7.020;2023-01-28T07:01:47;18.70;;;12.98;;
31638;SDS011;18248;51.522;7.020;2023-01-28T07:04:47;17.50;;;12.95;;
31638;SDS011;18248;51.522;7.020;2023-01-28T07:07:45;19.55;;;14.27;;
31638;SDS011;18248;51.522;7.020;2023-01-28T07:10:44;17.25;;;12.98;;
31638;SDS011;18248;51.522;7.020;2023-01-28T07:13:42;17.58;;;13.02;;
31638;SDS011;18248;51.522;7.020;2023-01-28T07:16:41;16.98;;;12.60;;
31638;SDS011;18248;51.522;7.020;2023-01-28T07:19:40;16.52;;;13.20;;
31638;SDS011;18248;51.522;7.020;2023-01-28T07:22:39;18.30;;;12.93;;
31638;SDS011;18248;51.522;7.020;2023-01-28T07:25:39;16.00;;;12.45;;
31638;SDS011;18248;51.522;7.020;2023-01-28T07:28:37;17.60;;;13.27;;
31638;SDS011;18248;51.522;7.020;2023-01-28T07:31:36;16.25;;;12.48;;
31638;SDS011;18248;51.522;7.020;2023-01-28T07:34:34;18.77;;;13.25;;
31638;SDS011;18248;51.522;7.020;2023-01-28T07:37:36;17.85;;;13.05;;
31638;SDS011;18248;51.522;7.020;2023-01-28T07:40:35;20.38;;;13.02;;
31638;SDS011;18248;51.522;7.020;2023-01-28T07:43:34;15.15;;;11.85;;
31638;SDS011;18248;51.522;7.020;2023-01-28T07:46:32;15.75;;;11.93;;
31638;SDS011;18248;51.522;7.020;2023-01-28T07:49:32;17.38;;;11.88;;
31638;SDS011;18248;51.522;7.020;2023-01-28T07:52:31;15.13;;;12.13;;
31638;SDS011;18248;51.522;7.020;2023-01-28T07:55:36;16.15;;;12.60;;
31638;SDS011;18248;51.522;7.020;2023-01-28T07:58:35;16.73;;;12.18;;
31638;SDS011;18248;51.522;7.020;2023-01-28T08:01:33;16.83;;;11.45;;
31638;SDS011;18248;51.522;7.020;2023-01-28T08:04:32;22.67;;;15.25;;
31638;SDS011;18248;51.522;7.020;2023-01-28T08:07:31;16.25;;;12.10;;
31638;SDS011;18248;51.522;7.020;2023-01-28T08:10:30;18.75;;;13.32;;
31638;SDS011;18248;51.522;7.020;2023-01-28T08:13:28;15.48;;;12.45;;
31638;SDS011;18248;51.522;7.020;2023-01-28T08:16:27;16.95;;;11.88;;
31638;SDS011;18248;51.522;7.020;2023-01-28T08:19:26;13.98;;;10.75;;
31638;SDS011;18248;51.522;7.020;2023-01-28T08:22:25;18.52;;;12.45;;
31638;SDS011;18248;51.522;7.020;2023-01-28T08:25:23;20.38;;;13.68;;
31638;SDS011;18248;51.522;7.020;2023-01-28T08:28:22;15.60;;;11.57;;
31638;SDS011;18248;51.522;7.020;2023-01-28T08:31:22;18.63;;;11.93;;
31638;SDS011;18248;51.522;7.020;2023-01-28T08:34:20;14.20;;;12.32;;
31638;SDS011;18248;51.522;7.020;2023-01-28T08:37:19;16.00;;;11.73;;
31638;SDS011;18248;51.522;7.020;2023-01-28T08:40:17;17.35;;;12.85;;
31638;SDS011;18248;51.522;7.020;2023-01-28T08:43:16;16.02;;;12.63;;
31638;SDS011;18248;51.522;7.020;2023-01-28T08:46:15;15.80;;;11.48;;
31638;SDS011;18248;51.522;7.020;2023-01-28T08:49:13;16.42;;;13.00;;
31638;SDS011;18248;51.522;7.020;2023-01-28T08:52:12;14.23;;;12.02;;
31638;SDS011;18248;51.522;7.020;2023-01-28T08:55:10;12.90;;;11.00;;
31638;SDS011;18248;51.522;7.020;2023-01-28T08:58:11;15.05;;;12.02;;
31638;SDS011;18248;51.522;7.020;2023-01-28T09:01:11;19.05;;;14.30;;
31638;SDS011;18248;51.522;7.020;2023-01-28T09:04:09;17.55;;;12.25;;
31638;SDS011;18248;51.522;7.020;2023-01-28T09:07:08;20.77;;;11.82;;
31638;SDS011;18248;51.522;7.020;2023-01-28T09:10:07;21.45;;;14.10;;
31638;SDS011;18248;51.522;7.020;2023-01-28T09:13:07;15.65;;;13.07;;
31638;SDS011;18248;51.522;7.020;2023-01-28T09:16:07;14.20;;;11.63;;
31638;SDS011;18248;51.522;7.020;2023-01-28T09:19:06;19.55;;;12.63;;
31638;SDS011;18248;51.522;7.020;2023-01-28T09:22:04;15.25;;;12.65;;
31638;SDS011;18248;51.522;7.020;2023-01-28T09:25:03;16.90;;;13.45;;
31638;SDS011;18248;51.522;7.020;2023-01-28T09:28:02;15.70;;;12.57;;
31638;SDS011;18248;51.522;7.020;2023-01-28T09:31:02;17.85;;;13.55;;
31638;SDS011;18248;51.522;7.020;2023-01-28T09:34:02;22.60;;;14.05;;
31638;SDS011;18248;51.522;7.020;2023-01-28T09:37:01;18.45;;;14.48;;
31638;SDS011;18248;51.522;7.020;2023-01-28T09:40:00;20.80;;;16.02;;
31638;SDS011;18248;51.522;7.020;2023-01-28T09:46:30;20.83;;;16.13;;
31638;SDS011;18248;51.522;7.020;2023-01-28T09:52:42;25.00;;;17.25;;
31638;SDS011;18248;51.522;7.020;2023-01-28T09:55:43;24.10;;;16.42;;
31638;SDS011;18248;51.522;7.020;2023-01-28T09:58:45;22.00;;;16.95;;
31638;SDS011;18248;51.522;7.020;2023-01-28T10:05:32;21.05;;;15.75;;
31638;SDS011;18248;51.522;7.020;2023-01-28T10:15:25;20.25;;;14.68;;
31638;SDS011;18248;51.522;7.020;2023-01-28T10:19:21;20.92;;;16.27;;
31638;SDS011;18248;51.522;7.020;2023-01-28T10:22:21;24.63;;;16.20;;
31638;SDS011;18248;51.522;7.020;2023-01-28T10:25:27;22.27;;;15.07;;
31638;SDS011;18248;51.522;7.020;2023-01-28T10:28:28;23.95;;;15.63;;
31638;SDS011;18248;51.522;7.020;2023-01-28T10:31:29;32.22;;;21.00;;
31638;SDS011;18248;51.522;7.020;2023-01-28T10:34:33;28.63;;;21.58;;
31638;SDS011;18248;51.522;7.020;2023-01-28T10:37:33;30.58;;;21.38;;
31638;SDS011;18248;51.522;7.020;2023-01-28T10:40:34;28.02;;;19.77;;
31638;SDS011;18248;51.522;7.020;2023-01-28T10:43:34;29.15;;;20.42;;
31638;SDS011;18248;51.522;7.020;2023-01-28T10:46:35;28.38;;;19.25;;
31638;SDS011;18248;51.522;7.020;2023-01-28T10:49:36;27.50;;;19.95;;
31638;SDS011;18248;51.522;7.020;2023-01-28T10:55:56;25.80;;;19.17;;
31638;SDS011;18248;51.522;7.020;2023-01-28T10:59:01;37.10;;;23.38;;
31638;SDS011;18248;51.522;7.020;2023-01-28T11:02:03;33.75;;;23.77;;
31638;SDS011;18248;51.522;7.020;2023-01-28T11:05:25;29.55;;;20.58;;
31638;SDS011;18248;51.522;7.020;2023-01-28T11:08:26;26.60;;;19.00;;
31638;SDS011;18248;51.522;7.020;2023-01-28T11:11:26;26.13;;;19.10;;
31638;SDS011;18248;51.522;7.020;2023-01-28T11:14:26;26.52;;;17.60;;
31638;SDS011;18248;51.522;7.020;2023-01-28T11:17:26;31.58;;;21.02;;
31638;SDS011;18248;51.522;7.020;2023-01-28T11:20:28;25.38;;;18.05;;
31638;SDS011;18248;51.522;7.020;2023-01-28T11:23:33;26.45;;;19.17;;
31638;SDS011;18248;51.522;7.020;2023-01-28T11:26:41;24.90;;;17.88;;
31638;SDS011;18248;51.522;7.020;2023-01-28T11:29:42;32.45;;;18.75;;
31638;SDS011;18248;51.522;7.020;2023-01-28T11:32:41;26.33;;;18.73;;
31638;SDS011;18248;51.522;7.020;2023-01-28T11:35:40;30.00;;;19.65;;
31638;SDS011;18248;51.522;7.020;2023-01-28T11:38:46;24.58;;;17.88;;
31638;SDS011;18248;51.522;7.020;2023-01-28T11:45:21;28.48;;;19.30;;
31638;SDS011;18248;51.522;7.020;2023-01-28T11:48:42;30.83;;;20.25;;
31638;SDS011;18248;51.522;7.020;2023-01-28T11:55:46;26.85;;;19.50;;
31638;SDS011;18248;51.522;7.020;2023-01-28T12:09:30;26.33;;;18.67;;
31638;SDS011;18248;51.522;7.020;2023-01-28T12:15:53;25.25;;;16.92;;
31638;SDS011;18248;51.522;7.020;2023-01-28T12:25:43;26.50;;;17.17;;
31638;SDS011;18248;51.522;7.020;2023-01-28T12:29:13;26.98;;;19.17;;
31638;SDS011;18248;51.522;7.020;2023-01-28T12:32:27;24.88;;;18.20;;
31638;SDS011;18248;51.522;7.020;2023-01-28T12:45:22;28.63;;;19.65;;
31638;SDS011;18248;51.522;7.020;2023-01-28T12:51:31;29.25;;;20.25;;
31638;SDS011;18248;51.522;7.020;2023-01-28T12:54:59;31.15;;;20.80;;
31638;SDS011;18248;51.522;7.020;2023-01-28T12:58:34;30.55;;;19.67;;
31638;SDS011;18248;51.522;7.020;2023-01-28T13:01:43;29.63;;;20.15;;
31638;SDS011;18248;51.522;7.020;2023-01-28T13:05:13;30.48;;;18.73;;
31638;SDS011;18248;51.522;7.020;2023-01-28T13:08:17;26.15;;;18.45;;
31638;SDS011;18248;51.522;7.020;2023-01-28T13:11:29;25.05;;;17.10;;
31638;SDS011;18248;51.522;7.020;2023-01-28T13:14:32;24.25;;;16.52;;
31638;SDS011;18248;51.522;7.020;2023-01-28T13:17:31;28.75;;;20.02;;
31638;SDS011;18248;51.522;7.020;2023-01-28T13:20:34;24.83;;;18.35;;
31638;SDS011;18248;51.522;7.020;2023-01-28T13:23:37;25.50;;;17.75;;
31638;SDS011;18248;51.522;7.020;2023-01-28T13:26:44;26.95;;;18.08;;
31638;SDS011;18248;51.522;7.020;2023-01-28T13:29:59;25.27;;;18.02;;
31638;SDS011;18248;51.522;7.020;2023-01-28T13:33:00;27.08;;;19.20;;
31638;SDS011;18248;51.522;7.020;2023-01-28T13:39:23;28.77;;;20.35;;
31638;SDS011;18248;51.522;7.020;2023-01-28T13:42:26;30.17;;;20.98;;
31638;SDS011;18248;51.522;7.020;2023-01-28T13:45:27;28.63;;;20.75;;
31638;SDS011;18248;51.522;7.020;2023-01-28T13:48:28;26.20;;;19.80;;
31638;SDS011;18248;51.522;7.020;2023-01-28T13:51:34;28.10;;;20.45;;
31638;SDS011;18248;51.522;7.020;2023-01-28T13:54:36;27.85;;;18.52;;
31638;SDS011;18248;51.522;7.020;2023-01-28T14:04:02;28.20;;;20.23;;
31638;SDS011;18248;51.522;7.020;2023-01-28T14:10:48;28.52;;;19.80;;
31638;SDS011;18248;51.522;7.020;2023-01-28T14:20:33;24.47;;;16.97;;
31638;SDS011;18248;51.522;7.020;2023-01-28T14:23:52;26.92;;;17.63;;
31638;SDS011;18248;51.522;7.020;2023-01-28T14:26:56;29.00;;;20.05;;
31638;SDS011;18248;51.522;7.020;2023-01-28T14:30:17;28.23;;;20.60;;
31638;SDS011;18248;51.522;7.020;2023-01-28T14:33:22;27.63;;;18.40;;
31638;SDS011;18248;51.522;7.020;2023-01-28T14:36:21;30.55;;;21.55;;
31638;SDS011;18248;51.522;7.020;2023-01-28T14:39:22;28.45;;;20.38;;
31638;SDS011;18248;51.522;7.020;2023-01-28T14:42:30;28.27;;;19.60;;
31638;SDS011;18248;51.522;7.020;2023-01-28T14:45:38;30.05;;;20.10;;
31638;SDS011;18248;51.522;7.020;2023-01-28T14:52:21;33.95;;;22.38;;
31638;SDS011;18248;51.522;7.020;2023-01-28T14:56:01;32.07;;;21.93;;
31638;SDS011;18248;51.522;7.020;2023-01-28T15:02:25;36.33;;;22.42;;
31638;SDS011;18248;51.522;7.020;2023-01-28T15:05:26;35.03;;;21.80;;
31638;SDS011;18248;51.522;7.020;2023-01-28T15:08:26;34.90;;;23.15;;
31638;SDS011;18248;51.522;7.020;2023-01-28T15:11:24;29.33;;;19.52;;
31638;SDS011;18248;51.522;7.020;2023-01-28T15:14:30;28.30;;;19.67;;
31638;SDS011;18248;51.522;7.020;2023-01-28T15:17:29;27.42;;;18.38;;
31638;SDS011;18248;51.522;7.020;2023-01-28T15:20:28;30.20;;;20.13;;
31638;SDS011;18248;51.522;7.020;2023-01-28T15:23:31;29.15;;;19.65;;
31638;SDS011;18248;51.522;7.020;2023-01-28T15:26:32;30.50;;;20.27;;
31638;SDS011;18248;51.522;7.020;2023-01-28T15:29:32;27.02;;;19.17;;
31638;SDS011;18248;51.522;7.020;2023-01-28T15:32:33;31.35;;;20.33;;
31638;SDS011;18248;51.522;7.020;2023-01-28T15:35:31;29.00;;;19.88;;
31638;SDS011;18248;51.522;7.020;2023-01-28T15:38:33;33.85;;;21.77;;
31638;SDS011;18248;51.522;7.020;2023-01-28T15:41:32;32.90;;;21.58;;
31638;SDS011;18248;51.522;7.020;2023-01-28T15:44:36;34.33;;;20.92;;
31638;SDS011;18248;51.522;7.020;2023-01-28T15:47:40;34.97;;;20.55;;
31638;SDS011;18248;51.522;7.020;2023-01-28T15:50:39;36.92;;;23.73;;
31638;SDS011;18248;51.522;7.020;2023-01-28T15:53:42;30.55;;;20.85;;
31638;SDS011;18248;51.522;7.020;2023-01-28T15:56:42;30.83;;;20.95;;
31638;SDS011;18248;51.522;7.020;2023-01-28T15:59:40;28.17;;;19.13;;
31638;SDS011;18248;51.522;7.020;2023-01-28T16:02:45;32.20;;;21.55;;
31638;SDS011;18248;51.522;7.020;2023-01-28T16:05:59;33.90;;;20.67;;
31638;SDS011;18248;51.522;7.020;2023-01-28T16:09:02;32.60;;;20.10;;
31638;SDS011;18248;51.522;7.020;2023-01-28T16:12:10;38.03;;;24.10;;
31638;SDS011;18248;51.522;7.020;2023-01-28T16:15:16;35.20;;;21.40;;
31638;SDS011;18248;51.522;7.020;2023-01-28T16:18:39;34.33;;;22.85;;
31638;SDS011;18248;51.522;7.020;2023-01-28T16:21:42;34.60;;;22.90;;
31638;SDS011;18248;51.522;7.020;2023-01-28T16:24:47;32.72;;;21.23;;
31638;SDS011;18248;51.522;7.020;2023-01-28T16:27:49;34.67;;;21.70;;
31638;SDS011;18248;51.522;7.020;2023-01-28T16:30:47;35.42;;;22.77;;
31638;SDS011;18248;51.522;7.020;2023-01-28T16:33:46;34.90;;;21.98;;
31638;SDS011;18248;51.522;7.020;2023-01-28T16:36:44;36.20;;;22.52;;
31638;SDS011;18248;51.522;7.020;2023-01-28T16:39:43;35.72;;;22.40;;
31638;SDS011;18248;51.522;7.020;2023-01-28T16:42:41;38.97;;;23.67;;
31638;SDS011;18248;51.522;7.020;2023-01-28T16:45:41;41.63;;;25.60;;
31638;SDS011;18248;51.522;7.020;2023-01-28T16:48:41;43.70;;;25.38;;
31638;SDS011;18248;51.522;7.020;2023-01-28T16:51:55;46.53;;;28.45;;
31638;SDS011;18248;51.522;7.020;2023-01-28T16:54:53;38.03;;;23.08;;
31638;SDS011;18248;51.522;7.020;2023-01-28T16:57:52;45.17;;;26.60;;
31638;SDS011;18248;51.522;7.020;2023-01-28T17:00:53;41.63;;;25.45;;
31638;SDS011;18248;51.522;7.020;2023-01-28T17:03:52;53.60;;;33.47;;
31638;SDS011;18248;51.522;7.020;2023-01-28T17:06:50;57.63;;;32.05;;
31638;SDS011;18248;51.522;7.020;2023-01-28T17:09:49;46.22;;;28.15;;
31638;SDS011;18248;51.522;7.020;2023-01-28T17:12:47;51.25;;;29.48;;
31638;SDS011;18248;51.522;7.020;2023-01-28T17:15:46;60.53;;;36.75;;
31638;SDS011;18248;51.522;7.020;2023-01-28T17:18:48;62.90;;;36.67;;
31638;SDS011;18248;51.522;7.020;2023-01-28T17:21:47;77.75;;;45.30;;
31638;SDS011;18248;51.522;7.020;2023-01-28T17:24:46;75.43;;;46.78;;
31638;SDS011;18248;51.522;7.020;2023-01-28T17:27:45;82.38;;;44.80;;
31638;SDS011;18248;51.522;7.020;2023-01-28T17:30:46;64.75;;;40.08;;
31638;SDS011;18248;51.522;7.020;2023-01-28T17:33:44;53.65;;;32.35;;
31638;SDS011;18248;51.522;7.020;2023-01-28T17:36:43;55.90;;;30.55;;
31638;SDS011;18248;51.522;7.020;2023-01-28T17:39:41;63.08;;;37.08;;
31638;SDS011;18248;51.522;7.020;2023-01-28T17:42:40;53.20;;;29.77;;
31638;SDS011;18248;51.522;7.020;2023-01-28T17:45:38;49.67;;;29.30;;
31638;SDS011;18248;51.522;7.020;2023-01-28T17:48:37;55.85;;;33.03;;
31638;SDS011;18248;51.522;7.020;2023-01-28T17:51:35;47.78;;;28.75;;
31638;SDS011;18248;51.522;7.020;2023-01-28T17:54:34;43.10;;;25.92;;
31638;SDS011;18248;51.522;7.020;2023-01-28T17:57:33;61.10;;;35.55;;
31638;SDS011;18248;51.522;7.020;2023-01-28T18:00:31;57.33;;;32.78;;
31638;SDS011;18248;51.522;7.020;2023-01-28T18:03:30;66.60;;;35.55;;
31638;SDS011;18248;51.522;7.020;2023-01-28T18:06:32;62.70;;;32.10;;
31638;SDS011;18248;51.522;7.020;2023-01-28T18:09:31;61.63;;;32.43;;
31638;SDS011;18248;51.522;7.020;2023-01-28T18:12:30;61.63;;;35.55;;
31638;SDS011;18248;51.522;7.020;2023-01-28T18:15:28;52.05;;;30.15;;
31638;SDS011;18248;51.522;7.020;2023-01-28T18:18:27;56.63;;;33.10;;
31638;SDS011;18248;51.522;7.020;2023-01-28T18:21:30;60.22;;;34.38;;
31638;SDS011;18248;51.522;7.020;2023-01-28T18:27:28;64.22;;;36.15;;
31638;SDS011;18248;51.522;7.020;2023-01-28T18:30:26;54.10;;;31.27;;
31638;SDS011;18248;51.522;7.020;2023-01-28T18:33:27;68.65;;;35.67;;
31638;SDS011;18248;51.522;7.020;2023-01-28T18:36:25;56.22;;;32.72;;
31638;SDS011;18248;51.522;7.020;2023-01-28T18:39:24;62.25;;;33.22;;
31638;SDS011;18248;51.522;7.020;2023-01-28T18:42:27;61.63;;;34.27;;
31638;SDS011;18248;51.522;7.020;2023-01-28T18:45:25;57.38;;;33.47;;
31638;SDS011;18248;51.522;7.020;2023-01-28T18:48:24;56.90;;;31.42;;
31638;SDS011;18248;51.522;7.020;2023-01-28T18:51:23;57.90;;;32.60;;
31638;SDS011;18248;51.522;7.020;2023-01-28T18:54:21;84.93;;;44.25;;
31638;SDS011;18248;51.522;7.020;2023-01-28T18:57:20;78.68;;;38.65;;
31638;SDS011;18248;51.522;7.020;2023-01-28T19:00:19;75.00;;;40.67;;
31638;SDS011;18248;51.522;7.020;2023-01-28T19:03:18;66.00;;;35.10;;
31638;SDS011;18248;51.522;7.020;2023-01-28T19:06:16;62.28;;;32.88;;
31638;SDS011;18248;51.522;7.020;2023-01-28T19:09:15;63.80;;;33.58;;
31638;SDS011;18248;51.522;7.020;2023-01-28T19:12:14;63.67;;;33.42;;
31638;SDS011;18248;51.522;7.020;2023-01-28T19:15:13;65.30;;;35.30;;
31638;SDS011;18248;51.522;7.020;2023-01-28T19:18:12;68.47;;;34.95;;
31638;SDS011;18248;51.522;7.020;2023-01-28T19:21:10;63.58;;;34.90;;
31638;SDS011;18248;51.522;7.020;2023-01-28T19:24:10;66.30;;;35.00;;
31638;SDS011;18248;51.522;7.020;2023-01-28T19:27:10;61.17;;;32.97;;
31638;SDS011;18248;51.522;7.020;2023-01-28T19:30:09;68.85;;;34.40;;
31638;SDS011;18248;51.522;7.020;2023-01-28T19:33:08;90.38;;;47.75;;
31638;SDS011;18248;51.522;7.020;2023-01-28T19:36:07;85.22;;;45.60;;
31638;SDS011;18248;51.522;7.020;2023-01-28T19:39:07;68.18;;;36.15;;